EGHQ

Cornwall Airport Newquay

Airport
ICAO code
EGHQ
IATA Code
NQY
Summary
ICAO Region
EUR
ICAO Territory
Location

Mawgan in Pydar, Cornwall

Serving
Newquay
Elevation
390 ft
Coordinates
50° 26' 27" N , 4° 59' 43" W
KCC
Metar
EGHQ 271020Z 19006KT 160V230 9999 FEW022 08/05 Q1022

Cornwall Airport Newquay is the main commercial airport for Cornwall, United Kingdom, located 4 nm northeast of the town of Newquay on Cornwall's north coast. 

Runways

Designator Length Width Surface Rops
13/31 2745 87 ASP No/No

Airport map

Aerial View

SKYbrary Partners:

Safety knowledge contributed by: